createdAt,value
2019-01-04T00:00:34.633Z,0.00
2019-01-04T00:01:36.689Z,0.00
2019-01-04T00:02:34.535Z,0.00
2019-01-04T00:03:34.521Z,0.00
2019-01-04T00:04:34.477Z,0.00
2019-01-04T00:05:34.529Z,0.00
2019-01-04T00:06:34.440Z,0.00
2019-01-04T00:07:35.441Z,0.00
2019-01-04T00:08:34.351Z,0.00
2019-01-04T00:09:34.365Z,0.00
2019-01-04T00:10:34.286Z,0.00
2019-01-04T00:11:34.245Z,0.00
2019-01-04T00:12:35.305Z,0.00
2019-01-04T00:13:34.199Z,0.00
2019-01-04T00:14:34.268Z,0.00
2019-01-04T00:15:34.126Z,0.00
2019-01-04T00:16:34.190Z,0.00
2019-01-04T00:17:34.042Z,0.00
2019-01-04T00:18:34.081Z,0.00
2019-01-04T00:19:33.973Z,0.00
2019-01-04T00:20:33.995Z,0.00
2019-01-04T00:21:33.912Z,0.00
2019-01-04T00:22:34.929Z,0.00
2019-01-04T00:23:33.853Z,0.00
2019-01-04T00:24:33.811Z,0.00
2019-01-04T00:25:33.790Z,0.00
2019-01-04T00:26:33.820Z,0.00
2019-01-04T00:27:33.708Z,0.00
2019-01-04T00:28:33.743Z,0.00
2019-01-04T00:29:33.646Z,0.00
2019-01-04T00:30:33.680Z,0.00
2019-01-04T00:31:33.591Z,0.00
2019-01-04T00:32:33.701Z,0.00
2019-01-04T00:33:33.527Z,0.00
2019-01-04T00:34:33.590Z,0.00
2019-01-04T00:35:33.933Z,0.00
2019-01-04T00:36:33.502Z,0.00
2019-01-04T00:37:33.420Z,0.00
2019-01-04T00:38:33.403Z,0.00
2019-01-04T00:39:33.325Z,0.00
2019-01-04T00:40:33.414Z,0.00
2019-01-04T00:41:33.270Z,0.00
2019-01-04T00:42:33.322Z,0.00
2019-01-04T00:43:33.202Z,0.00
2019-01-04T00:44:33.190Z,0.00
2019-01-04T00:45:33.129Z,0.00
2019-01-04T00:46:34.183Z,0.00
2019-01-04T00:47:33.100Z,0.00
2019-01-04T00:48:33.037Z,0.00
2019-01-04T00:49:33.005Z,0.00
2019-01-04T00:50:32.975Z,0.00
2019-01-04T00:51:32.975Z,0.00
2019-01-04T00:52:32.942Z,0.00
2019-01-04T00:53:32.980Z,0.00
2019-01-04T00:54:32.838Z,0.00
2019-01-04T00:55:32.943Z,0.00
2019-01-04T00:56:32.794Z,0.00
2019-01-04T00:57:32.810Z,0.00
2019-01-04T00:58:32.715Z,0.00
2019-01-04T00:59:32.806Z,0.00
2019-01-04T01:00:32.667Z,0.00
2019-01-04T01:01:39.258Z,0.00
2019-01-04T01:02:32.609Z,0.00
2019-01-04T01:03:40.294Z,0.00
2019-01-04T01:04:32.524Z,0.00
2019-01-04T01:05:33.575Z,0.00
2019-01-04T01:06:32.468Z,0.00
2019-01-04T01:07:32.567Z,0.00
2019-01-04T01:08:32.407Z,0.00
2019-01-04T01:09:32.387Z,0.00
2019-01-04T01:10:34.418Z,0.00
2019-01-04T01:11:32.298Z,0.00
2019-01-04T01:12:32.367Z,0.00
2019-01-04T01:13:32.236Z,0.00
2019-01-04T01:14:40.162Z,0.00
2019-01-04T01:15:32.173Z,0.00
2019-01-04T01:16:32.191Z,0.00
2019-01-04T01:17:32.130Z,0.00
2019-01-04T01:18:32.079Z,0.00
2019-01-04T01:19:32.155Z,0.00
2019-01-04T01:20:32.006Z,0.00
2019-01-04T01:21:31.979Z,0.00
2019-01-04T01:22:31.944Z,0.00
2019-01-04T01:23:31.904Z,0.00
2019-01-04T01:24:31.866Z,0.00
2019-01-04T01:25:31.854Z,0.00
2019-01-04T01:26:31.823Z,0.00
2019-01-04T01:27:31.785Z,0.00
2019-01-04T01:28:31.765Z,0.00
2019-01-04T01:29:31.730Z,0.00
2019-01-04T01:30:31.717Z,0.00
2019-01-04T01:31:31.647Z,0.00
2019-01-04T01:32:31.645Z,0.00
2019-01-04T01:33:31.596Z,0.00
2019-01-04T01:34:31.627Z,0.00
2019-01-04T01:35:31.528Z,0.00
2019-01-04T01:36:31.552Z,0.00
2019-01-04T01:37:31.452Z,0.00
2019-01-04T01:38:31.444Z,0.00
2019-01-04T01:39:31.384Z,0.00
2019-01-04T01:40:31.458Z,0.00
2019-01-04T01:41:31.342Z,0.00
2019-01-04T01:42:31.385Z,0.00
2019-01-04T01:43:31.251Z,0.00
2019-01-04T01:44:31.314Z,0.00
2019-01-04T01:45:31.193Z,0.00
2019-01-04T01:46:31.230Z,0.00
2019-01-04T01:47:31.121Z,0.00
2019-01-04T01:48:31.114Z,0.00
2019-01-04T01:49:31.063Z,0.00
2019-01-04T01:50:31.118Z,0.00
2019-01-04T01:51:31.009Z,0.00
2019-01-04T01:52:31.047Z,0.00
2019-01-04T01:53:30.945Z,0.00
2019-01-04T01:54:30.949Z,0.00
2019-01-04T01:55:30.883Z,0.00
2019-01-04T01:56:31.877Z,0.00
2019-01-04T01:57:30.821Z,0.00
2019-01-04T01:58:32.826Z,0.00
2019-01-04T01:59:30.750Z,0.00
2019-01-04T02:00:30.772Z,0.00
2019-01-04T02:01:30.683Z,0.00
2019-01-04T02:02:30.681Z,0.00
2019-01-04T02:03:30.622Z,0.00
2019-01-04T02:04:32.646Z,0.00
2019-01-04T02:05:30.540Z,0.00
2019-01-04T02:06:39.208Z,0.00
2019-01-04T02:07:30.474Z,0.00
2019-01-04T02:08:54.203Z,0.00
2019-01-04T02:09:30.425Z,0.00
2019-01-04T02:10:31.495Z,0.00
2019-01-04T02:11:30.366Z,0.00
2019-01-04T02:12:30.357Z,0.00
2019-01-04T02:13:30.301Z,0.00
2019-01-04T02:14:39.281Z,0.00
2019-01-04T02:15:30.227Z,0.00
2019-01-04T02:16:39.210Z,0.00
2019-01-04T02:17:30.204Z,0.00
2019-01-04T02:18:36.735Z,0.00
2019-01-04T02:19:30.100Z,0.00
2019-01-04T02:20:30.124Z,0.00
2019-01-04T02:21:30.054Z,0.00
2019-01-04T02:22:30.019Z,0.00
2019-01-04T02:23:29.982Z,0.00
2019-01-04T02:24:30.034Z,0.00
2019-01-04T02:25:29.966Z,0.00
2019-01-04T02:26:37.718Z,0.00
2019-01-04T02:27:29.838Z,0.00
2019-01-04T02:28:30.895Z,0.00
2019-01-04T02:29:29.793Z,0.00
2019-01-04T02:30:29.766Z,0.00
2019-01-04T02:31:29.706Z,0.00
2019-01-04T02:32:30.698Z,0.00
2019-01-04T02:33:29.643Z,0.00
2019-01-04T02:34:29.710Z,0.00
2019-01-04T02:35:29.579Z,0.00
2019-01-04T02:36:30.635Z,0.00
2019-01-04T02:37:29.521Z,0.00
2019-01-04T02:38:29.521Z,0.00
2019-01-04T02:39:29.470Z,0.00
2019-01-04T02:40:29.505Z,0.00
2019-01-04T02:41:29.384Z,0.00
2019-01-04T02:42:29.429Z,0.00
2019-01-04T02:43:29.300Z,0.00
2019-01-04T02:44:30.356Z,0.00
2019-01-04T02:45:29.249Z,0.00
2019-01-04T02:46:29.242Z,0.00
2019-01-04T02:47:29.187Z,0.00
2019-01-04T03:03:01.790Z,0.00
2019-01-04T03:03:59.917Z,0.00
2019-01-04T03:04:59.954Z,0.00
2019-01-04T03:05:59.860Z,0.00
2019-01-04T03:07:00.917Z,0.00
2019-01-04T03:07:59.797Z,0.00
2019-01-04T03:08:59.770Z,0.00
2019-01-04T03:09:59.744Z,0.00
2019-01-04T04:18:51.481Z,0.00
2019-01-04T04:19:28.052Z,0.00
2019-01-04T05:04:16.194Z,0.00
2019-01-04T05:05:16.030Z,0.00
2019-01-04T05:07:09.452Z,0.00
2019-01-04T05:08:09.516Z,0.00
2019-01-04T05:09:09.362Z,0.00
2019-01-04T05:10:09.341Z,0.00
2019-01-04T05:11:09.327Z,0.00
2019-01-04T05:50:47.910Z,0.00
2019-01-04T05:51:45.634Z,0.00
2019-01-04T06:08:33.356Z,0.00
2019-01-04T06:09:32.732Z,0.00
2019-01-04T06:11:37.076Z,0.00
2019-01-04T06:12:36.315Z,0.00
2019-01-04T06:13:36.327Z,0.00
2019-01-04T06:14:36.997Z,0.00
2019-01-04T06:15:36.340Z,0.00
2019-01-04T06:16:36.175Z,0.00
2019-01-04T06:17:36.163Z,0.00
2019-01-04T06:18:36.137Z,0.00
2019-01-04T06:19:36.101Z,0.00
2019-01-04T06:20:36.054Z,0.00
2019-01-04T06:21:36.048Z,0.00
2019-01-04T06:22:35.989Z,0.00
2019-01-04T06:23:35.955Z,0.00
2019-01-04T06:24:35.926Z,0.00
2019-01-04T06:25:35.909Z,0.00
2019-01-04T06:26:35.848Z,0.00
2019-01-04T06:27:35.836Z,0.00
2019-01-04T06:28:35.802Z,0.00
2019-01-04T06:29:35.754Z,0.00
2019-01-04T06:30:35.737Z,0.00
2019-01-04T06:31:35.706Z,0.00
2019-01-04T06:32:35.665Z,0.00
2019-01-04T06:33:35.735Z,0.00
2019-01-04T06:34:35.589Z,0.00
2019-01-04T06:35:35.651Z,0.00
2019-01-04T06:36:35.556Z,0.00
2019-01-04T06:37:35.550Z,0.00
2019-01-04T06:38:35.478Z,0.00
2019-01-04T06:39:37.520Z,0.00
2019-01-04T06:40:35.419Z,0.00
2019-01-04T06:41:35.489Z,0.00
2019-01-04T06:42:35.361Z,0.00
2019-01-04T06:43:35.376Z,0.00
2019-01-04T06:44:35.267Z,0.00
2019-01-04T06:45:35.312Z,0.00
2019-01-04T06:46:35.211Z,0.00
2019-01-04T06:47:35.204Z,0.00
2019-01-04T06:48:35.147Z,0.00
2019-01-04T06:49:35.221Z,0.00
2019-01-04T06:50:35.084Z,0.00
2019-01-04T06:51:35.139Z,0.00
2019-01-04T06:52:35.024Z,0.00
2019-01-04T06:53:37.082Z,0.00
2019-01-04T06:54:34.958Z,0.00
2019-01-04T06:55:34.963Z,0.00
2019-01-04T06:56:34.882Z,0.00
2019-01-04T06:57:35.872Z,0.00
2019-01-04T06:58:34.816Z,0.00
2019-01-04T06:59:34.875Z,0.00
2019-01-04T07:00:34.760Z,0.00
2019-01-04T07:01:34.795Z,0.00
2019-01-04T07:02:34.699Z,0.00
2019-01-04T07:03:34.700Z,0.00
2019-01-04T07:04:34.629Z,0.00
2019-01-04T07:05:35.736Z,0.00
2019-01-04T07:06:34.579Z,0.00
2019-01-04T07:07:36.632Z,0.00
2019-01-04T07:08:34.501Z,0.00
2019-01-04T07:09:36.567Z,0.00
2019-01-04T07:10:34.444Z,0.00
2019-01-04T07:11:35.434Z,0.00
2019-01-04T07:12:34.393Z,0.00
2019-01-04T07:13:34.424Z,0.00
2019-01-04T07:14:34.314Z,0.00
2019-01-04T07:15:34.333Z,0.00
2019-01-04T07:16:34.220Z,0.00
2019-01-04T07:17:35.224Z,0.00
2019-01-04T07:18:34.185Z,0.00
2019-01-04T07:19:34.168Z,0.00
2019-01-04T07:20:34.121Z,0.00
2019-01-04T07:21:36.125Z,0.00
2019-01-04T07:22:34.071Z,0.00
2019-01-04T07:23:35.146Z,0.00
2019-01-04T07:24:34.002Z,0.00
2019-01-04T07:44:39.613Z,5.63
2019-01-04T07:45:38.039Z,5.63
2019-01-04T07:46:37.939Z,5.63
2019-01-04T07:47:37.800Z,5.63
2019-01-04T07:48:37.868Z,5.63
2019-01-04T07:49:37.900Z,5.63
2019-01-04T07:50:38.778Z,5.63
2019-01-04T07:51:37.678Z,11.25
2019-01-04T07:52:37.703Z,11.25
2019-01-04T07:53:37.697Z,11.25
2019-01-04T07:59:39.960Z,11.25
2019-01-04T08:00:38.175Z,16.88
2019-01-04T08:01:38.239Z,16.88
2019-01-04T08:02:38.998Z,16.88
2019-01-04T08:03:38.077Z,11.25
2019-01-04T08:04:38.048Z,11.25
2019-01-04T08:05:38.010Z,11.25
2019-01-04T08:06:37.980Z,16.88
2019-01-04T08:07:37.948Z,16.88
2019-01-04T08:08:37.924Z,22.50
2019-01-04T08:09:37.879Z,16.88
2019-01-04T08:10:37.886Z,16.88
2019-01-04T08:11:37.817Z,16.88
2019-01-04T08:12:37.800Z,16.88
2019-01-04T08:13:37.766Z,22.50
2019-01-04T08:14:37.723Z,22.50
2019-01-04T08:15:37.687Z,22.50
2019-01-04T08:16:37.661Z,22.50
2019-01-04T08:17:37.627Z,22.50
2019-01-04T08:18:37.597Z,22.50
2019-01-04T08:19:37.649Z,22.50
2019-01-04T08:20:37.533Z,22.50
2019-01-04T08:21:37.499Z,22.50
2019-01-04T08:22:37.457Z,22.50
2019-01-04T08:23:37.434Z,22.50
2019-01-04T08:24:37.485Z,22.50
2019-01-04T08:25:37.391Z,22.50
2019-01-04T08:26:37.342Z,16.88
2019-01-04T08:27:37.318Z,22.50
2019-01-04T08:28:37.266Z,33.75
2019-01-04T08:29:37.232Z,39.38
2019-01-04T08:30:37.212Z,33.75
2019-01-04T08:31:37.207Z,33.75
2019-01-04T08:32:37.174Z,33.75
2019-01-04T08:33:37.184Z,33.75
2019-01-04T08:34:37.103Z,33.75
2019-01-04T08:35:37.092Z,33.75
2019-01-04T08:36:37.046Z,28.13
2019-01-04T08:37:37.031Z,28.13
2019-01-04T08:38:36.972Z,22.50
2019-01-04T08:39:36.939Z,22.50
2019-01-04T08:40:36.912Z,28.13
2019-01-04T08:41:36.881Z,39.38
2019-01-04T08:42:37.449Z,39.38
2019-01-04T08:43:36.808Z,33.75
2019-01-04T08:44:36.794Z,39.38
2019-01-04T08:45:36.846Z,39.38
2019-01-04T08:46:36.699Z,39.38
2019-01-04T08:47:36.740Z,45.00
2019-01-04T08:48:36.664Z,45.00
2019-01-04T08:49:36.635Z,45.00
2019-01-04T08:50:36.548Z,50.63
2019-01-04T08:51:37.575Z,56.25
2019-01-04T08:52:36.477Z,56.25
2019-01-04T08:53:36.556Z,56.25
2019-01-04T08:54:36.435Z,56.25
2019-01-04T08:55:36.463Z,56.25
2019-01-04T08:56:36.425Z,56.25
2019-01-04T08:57:36.451Z,50.63
2019-01-04T08:58:36.405Z,50.63
2019-01-04T08:59:36.301Z,45.00
2019-01-04T09:00:36.397Z,45.00
2019-01-04T09:01:36.235Z,45.00
2019-01-04T09:02:36.209Z,45.00
2019-01-04T09:03:36.184Z,39.38
2019-01-04T09:04:36.218Z,39.38
2019-01-04T09:05:36.150Z,33.75
2019-01-04T09:06:36.155Z,39.38
2019-01-04T09:07:36.044Z,39.38
2019-01-04T09:08:36.064Z,45.00
2019-01-04T09:09:36.140Z,50.63
2019-01-04T09:10:36.083Z,50.63
2019-01-04T09:11:36.037Z,56.25
2019-01-04T09:12:36.002Z,56.25
2019-01-04T09:13:35.847Z,61.88
2019-01-04T09:14:35.946Z,61.88
2019-01-04T09:15:35.791Z,56.25
2019-01-04T09:16:36.874Z,61.88
2019-01-04T09:17:35.728Z,61.88
2019-01-04T09:18:36.701Z,61.88
2019-01-04T09:19:35.622Z,61.88
2019-01-04T09:20:35.719Z,61.88
2019-01-04T09:21:35.550Z,67.50
2019-01-04T09:22:35.620Z,67.50
2019-01-04T09:23:35.494Z,73.13
2019-01-04T09:24:37.586Z,73.13
2019-01-04T09:25:35.455Z,78.75
2019-01-04T09:26:36.475Z,84.38
2019-01-04T09:27:35.382Z,78.75
2019-01-04T09:28:35.347Z,78.75
2019-01-04T09:29:35.286Z,67.50
2019-01-04T09:30:36.285Z,67.50
2019-01-04T09:31:35.243Z,73.13
2019-01-04T09:32:42.078Z,67.50
2019-01-04T09:33:35.165Z,61.88
2019-01-04T09:34:35.263Z,56.25
2019-01-04T09:35:35.106Z,73.13
2019-01-04T09:36:43.021Z,56.25
2019-01-04T09:37:35.028Z,67.50
2019-01-04T09:38:36.085Z,78.75
2019-01-04T09:39:34.960Z,95.63
2019-01-04T09:40:34.976Z,106.88
2019-01-04T09:41:34.883Z,123.75
2019-01-04T09:42:35.889Z,106.88
2019-01-04T09:43:34.825Z,112.50
2019-01-04T09:44:34.935Z,112.50
2019-01-04T09:45:34.765Z,106.88
2019-01-04T09:46:41.546Z,112.50
2019-01-04T09:47:34.716Z,106.88
2019-01-04T09:48:41.567Z,95.63
2019-01-04T09:49:34.648Z,84.38
2019-01-04T09:51:12.525Z,78.75
2019-01-04T09:51:34.569Z,90.00
2019-01-04T09:53:03.508Z,112.50
2019-01-04T09:53:34.500Z,118.13
2019-01-04T09:54:40.993Z,112.50
2019-01-04T09:55:34.430Z,106.88
2019-01-04T10:06:54.339Z,56.25
2019-01-04T10:07:48.144Z,50.63
2019-01-04T10:09:03.855Z,61.88
2019-01-04T10:09:48.048Z,56.25
2019-01-04T10:11:12.821Z,61.88
2019-01-04T10:11:47.985Z,56.25
2019-01-04T10:12:54.809Z,56.25
2019-01-04T10:13:47.910Z,45.00
2019-01-04T10:14:47.964Z,39.38
2019-01-04T10:15:47.868Z,50.63
2019-01-04T10:16:47.816Z,39.38
2019-01-04T10:17:47.797Z,45.00
2019-01-04T10:18:47.794Z,50.63
2019-01-04T10:19:47.736Z,56.25
2019-01-04T10:20:47.697Z,61.88
2019-01-04T10:21:48.753Z,56.25
2019-01-04T10:22:47.633Z,61.88
2019-01-04T10:23:47.630Z,61.88
2019-01-04T10:24:47.569Z,56.25
2019-01-04T10:25:47.640Z,61.88
2019-01-04T10:26:47.509Z,56.25
2019-01-04T10:27:47.544Z,56.25
2019-01-04T10:28:47.470Z,45.00
2019-01-04T10:29:47.457Z,61.88
2019-01-04T10:30:47.381Z,56.25
2019-01-04T10:31:47.357Z,61.88
2019-01-04T10:32:47.359Z,50.63
2019-01-04T10:33:47.274Z,50.63
2019-01-04T10:34:47.250Z,39.38
2019-01-04T10:35:47.303Z,50.63
2019-01-04T10:36:47.183Z,61.88
2019-01-04T10:37:47.204Z,61.88
2019-01-04T10:38:47.124Z,67.50
2019-01-04T10:39:47.071Z,61.88
2019-01-04T10:40:47.128Z,73.13
2019-01-04T10:41:47.010Z,61.88
2019-01-04T10:42:47.024Z,50.63
2019-01-04T10:43:46.974Z,50.63
2019-01-04T10:44:47.987Z,61.88
2019-01-04T10:45:46.893Z,84.38
2019-01-04T10:46:46.977Z,84.38
2019-01-04T10:47:46.846Z,56.25
2019-01-04T10:48:46.818Z,56.25
2019-01-04T10:49:54.393Z,39.38
2019-01-04T10:50:46.732Z,33.75
2019-01-04T10:51:46.785Z,33.75
2019-01-04T10:52:46.787Z,28.13
2019-01-04T10:53:48.756Z,22.50
2019-01-04T10:54:46.604Z,22.50
2019-01-04T10:55:46.612Z,33.75
2019-01-04T10:56:46.532Z,28.13
2019-01-04T10:57:46.520Z,28.13
2019-01-04T10:58:46.455Z,22.50
2019-01-04T10:59:47.487Z,22.50
2019-01-04T11:00:46.511Z,16.88
2019-01-04T11:01:46.441Z,22.50
2019-01-04T11:02:46.323Z,22.50
2019-01-04T11:03:46.371Z,22.50
2019-01-04T11:04:46.259Z,28.13
2019-01-04T11:05:46.260Z,22.50
2019-01-04T11:06:46.224Z,22.50
2019-01-04T11:07:46.157Z,22.50
2019-01-04T11:08:46.211Z,22.50
2019-01-04T11:09:46.092Z,28.13
2019-01-04T11:10:46.054Z,22.50
2019-01-04T11:11:46.162Z,28.13
2019-01-04T11:12:46.013Z,28.13
2019-01-04T11:13:45.968Z,28.13
2019-01-04T11:14:46.096Z,33.75
2019-01-04T11:15:45.902Z,28.13
2019-01-04T11:16:45.884Z,22.50
2019-01-04T11:17:45.865Z,28.13
2019-01-04T11:18:45.804Z,33.75
2019-01-04T11:19:45.790Z,33.75
2019-01-04T11:20:45.798Z,28.13
2019-01-04T11:21:45.750Z,22.50
2019-01-04T11:22:45.669Z,22.50
2019-01-04T11:23:45.655Z,22.50
2019-01-04T11:24:45.612Z,22.50
2019-01-04T11:25:45.668Z,28.13
2019-01-04T11:26:45.602Z,33.75
2019-01-04T11:27:45.522Z,28.13
2019-01-04T11:28:45.535Z,33.75
2019-01-04T11:29:45.438Z,28.13
2019-01-04T11:30:45.528Z,33.75
2019-01-04T11:31:45.410Z,33.75
2019-01-04T11:32:45.434Z,33.75
2019-01-04T11:33:45.327Z,39.38
2019-01-04T11:34:45.288Z,39.38
2019-01-04T11:35:45.251Z,50.63
2019-01-04T11:36:45.245Z,45.00
2019-01-04T11:37:45.268Z,50.63
2019-01-04T11:38:45.148Z,45.00
2019-01-04T11:39:45.179Z,45.00
2019-01-04T11:40:45.093Z,45.00
2019-01-04T11:41:45.211Z,45.00
2019-01-04T11:42:45.019Z,33.75
2019-01-04T11:43:46.103Z,28.13
2019-01-04T11:44:44.971Z,28.13
2019-01-04T11:45:46.022Z,28.13
2019-01-04T11:46:44.898Z,28.13
2019-01-04T11:47:44.910Z,28.13
2019-01-04T11:48:44.831Z,28.13
2019-01-04T11:49:44.935Z,28.13
2019-01-04T11:50:44.763Z,33.75
2019-01-04T11:51:51.431Z,28.13
2019-01-04T11:52:44.705Z,33.75
2019-01-04T11:53:46.863Z,28.13
2019-01-04T11:54:44.617Z,28.13
2019-01-04T11:55:44.697Z,28.13
2019-01-04T11:56:44.593Z,28.13
2019-01-04T11:57:44.715Z,28.13
2019-01-04T11:58:44.494Z,28.13
2019-01-04T11:59:44.479Z,28.13
2019-01-04T12:00:44.539Z,22.50
2019-01-04T12:01:44.438Z,28.13
2019-01-04T12:02:45.477Z,28.13
2019-01-04T12:03:44.340Z,28.13
2019-01-04T12:04:44.349Z,22.50
2019-01-04T12:05:44.259Z,22.50
2019-01-04T12:06:45.285Z,28.13
2019-01-04T12:07:44.208Z,22.50
2019-01-04T12:08:50.833Z,16.88
2019-01-04T12:09:44.166Z,16.88
2019-01-04T12:10:44.216Z,22.50
2019-01-04T12:11:44.101Z,22.50
2019-01-04T12:12:44.118Z,22.50
2019-01-04T12:13:44.032Z,28.13
2019-01-04T12:14:43.989Z,22.50
2019-01-04T12:15:44.013Z,22.50
2019-01-04T12:16:43.922Z,22.50
2019-01-04T12:17:43.929Z,16.88
2019-01-04T12:18:43.854Z,28.13
2019-01-04T12:19:43.841Z,28.13
2019-01-04T12:20:45.491Z,28.13
2019-01-04T12:21:43.771Z,22.50
2019-01-04T12:22:43.733Z,33.75
2019-01-04T12:23:43.685Z,33.75
2019-01-04T12:24:43.662Z,39.38
2019-01-04T12:25:43.624Z,39.38
2019-01-04T12:26:43.611Z,33.75
2019-01-04T12:27:43.563Z,28.13
2019-01-04T12:28:43.515Z,33.75
2019-01-04T12:29:43.608Z,33.75
2019-01-04T12:30:43.472Z,33.75
2019-01-04T12:31:43.541Z,33.75
2019-01-04T12:32:43.422Z,33.75
2019-01-04T12:33:43.435Z,33.75
2019-01-04T12:34:43.325Z,33.75
2019-01-04T12:35:43.309Z,39.38
2019-01-04T12:36:43.260Z,39.38
2019-01-04T12:37:43.255Z,39.38
2019-01-04T12:38:43.201Z,45.00
2019-01-04T12:39:43.228Z,45.00
2019-01-04T12:40:43.131Z,39.38
2019-01-04T12:41:43.109Z,39.38
2019-01-04T12:42:43.081Z,39.38
2019-01-04T12:43:47.874Z,45.00
2019-01-04T12:44:43.017Z,39.38
2019-01-04T12:45:43.011Z,45.00
2019-01-04T12:46:42.942Z,50.63
2019-01-04T12:47:43.006Z,56.25
2019-01-04T12:48:42.872Z,61.88
2019-01-04T12:49:42.845Z,50.63
2019-01-04T12:50:42.835Z,50.63
2019-01-04T12:51:42.780Z,50.63
2019-01-04T12:52:42.750Z,45.00
2019-01-04T12:53:42.762Z,45.00
2019-01-04T12:54:42.745Z,50.63
2019-01-04T12:55:42.652Z,56.25
2019-01-04T12:56:42.665Z,50.63
2019-01-04T12:57:42.602Z,56.25
2019-01-04T12:58:42.554Z,56.25
2019-01-04T12:59:42.530Z,56.25
2019-01-04T13:00:42.487Z,67.50
2019-01-04T13:01:42.457Z,56.25
2019-01-04T13:02:42.409Z,56.25
2019-01-04T13:03:42.387Z,56.25
2019-01-04T13:04:42.360Z,56.25
2019-01-04T13:05:42.338Z,50.63
2019-01-04T13:06:42.287Z,50.63
2019-01-04T13:07:42.258Z,50.63
2019-01-04T13:08:42.234Z,45.00
2019-01-04T13:09:42.201Z,50.63
2019-01-04T13:10:42.181Z,39.38
2019-01-04T13:11:42.144Z,33.75
2019-01-04T13:12:42.103Z,33.75
2019-01-04T13:13:43.808Z,28.13
2019-01-04T13:14:42.078Z,33.75
2019-01-04T13:15:42.006Z,28.13
2019-01-04T13:16:41.947Z,22.50
2019-01-04T13:17:41.941Z,22.50
2019-01-04T13:18:41.892Z,28.13
2019-01-04T13:19:41.863Z,28.13
2019-01-04T13:20:41.844Z,28.13
2019-01-04T13:21:41.921Z,22.50
2019-01-04T13:22:41.773Z,28.13
2019-01-04T13:23:42.855Z,28.13
2019-01-04T13:24:41.762Z,22.50
2019-01-04T13:25:43.811Z,28.13
2019-01-04T13:26:41.640Z,28.13
2019-01-04T13:27:41.689Z,22.50
2019-01-04T13:28:41.577Z,28.13
2019-01-04T13:29:41.666Z,28.13
2019-01-04T13:30:41.516Z,22.50
2019-01-04T13:31:41.598Z,28.13
2019-01-04T13:32:41.447Z,28.13
2019-01-04T13:33:41.493Z,22.50
2019-01-04T13:34:42.688Z,22.50
2019-01-04T13:35:42.444Z,22.50
2019-01-04T13:36:41.325Z,16.88
2019-01-04T13:37:41.437Z,16.88
2019-01-04T13:38:41.248Z,16.88
2019-01-04T13:39:41.332Z,16.88
2019-01-04T13:40:41.199Z,16.88
2019-01-04T13:41:41.163Z,28.13
2019-01-04T13:42:41.124Z,22.50
2019-01-04T13:43:41.172Z,22.50
2019-01-04T13:44:41.048Z,22.50
2019-01-04T13:45:41.026Z,28.13
2019-01-04T13:46:41.076Z,22.50
2019-01-04T13:47:40.960Z,16.88
2019-01-04T13:48:40.924Z,16.88
2019-01-04T13:49:40.903Z,16.88
2019-01-04T13:50:40.905Z,16.88
2019-01-04T13:51:40.824Z,11.25
2019-01-04T13:52:40.855Z,11.25
2019-01-04T13:53:40.755Z,11.25
2019-01-04T13:54:40.760Z,11.25
2019-01-04T13:55:40.700Z,11.25
2019-01-04T13:56:40.684Z,16.88
2019-01-04T13:57:40.645Z,16.88
2019-01-04T13:58:40.613Z,22.50
2019-01-04T13:59:40.582Z,22.50
2019-01-04T14:00:40.541Z,16.88
2019-01-04T14:01:40.565Z,16.88
2019-01-04T14:02:40.480Z,16.88
2019-01-04T14:03:40.446Z,16.88
2019-01-04T14:04:40.420Z,16.88
2019-01-04T14:05:40.498Z,11.25
2019-01-04T14:06:40.365Z,11.25
2019-01-04T14:07:40.386Z,11.25
2019-01-04T14:08:40.282Z,11.25
2019-01-04T14:09:40.242Z,11.25
2019-01-04T14:10:40.216Z,11.25
2019-01-04T14:11:40.171Z,11.25
2019-01-04T14:12:40.151Z,11.25
2019-01-04T14:13:40.138Z,11.25
2019-01-04T14:14:40.078Z,11.25
2019-01-04T14:15:40.056Z,11.25
2019-01-04T14:16:40.064Z,11.25
2019-01-04T14:17:39.995Z,11.25
2019-01-04T14:18:40.082Z,11.25
2019-01-04T14:19:39.926Z,11.25
2019-01-04T14:20:39.973Z,11.25
2019-01-04T14:21:39.850Z,11.25
2019-01-04T14:22:39.818Z,11.25
2019-01-04T14:23:39.887Z,11.25
2019-01-04T14:24:39.750Z,11.25
2019-01-04T14:25:39.807Z,11.25
2019-01-04T14:26:39.712Z,5.63
2019-01-04T14:27:39.713Z,11.25
2019-01-04T14:28:39.632Z,11.25
2019-01-04T14:29:39.638Z,11.25
2019-01-04T14:30:39.555Z,11.25
2019-01-04T14:31:39.643Z,11.25
2019-01-04T14:32:39.494Z,11.25
2019-01-04T14:33:39.555Z,5.63
2019-01-04T14:34:39.423Z,5.63
2019-01-04T14:35:39.469Z,5.63
2019-01-04T14:36:39.370Z,11.25
2019-01-04T14:37:39.384Z,5.63
2019-01-04T14:38:39.306Z,5.63
2019-01-04T14:39:39.389Z,5.63
2019-01-04T14:40:39.257Z,5.63
2019-01-04T14:41:39.301Z,5.63
2019-01-04T14:42:39.201Z,5.63
2019-01-04T14:43:39.196Z,5.63
2019-01-04T14:44:39.220Z,0.00
2019-01-04T14:45:39.083Z,0.00
2019-01-04T14:46:39.134Z,5.63
2019-01-04T14:47:39.025Z,0.00
2019-01-04T14:48:39.040Z,0.00
2019-01-04T14:49:38.952Z,0.00
2019-01-04T14:50:38.994Z,0.00
2019-01-04T14:51:38.898Z,0.00
2019-01-04T14:52:38.940Z,0.00
2019-01-04T14:53:38.811Z,5.63
2019-01-04T14:54:38.821Z,0.00
2019-01-04T14:55:38.750Z,0.00
2019-01-04T14:56:38.749Z,0.00
2019-01-04T14:57:38.682Z,0.00
2019-01-04T14:58:39.681Z,0.00
2019-01-04T14:59:38.620Z,0.00
2019-01-04T15:00:38.679Z,0.00
2019-01-04T15:01:38.559Z,0.00
2019-01-04T15:02:38.621Z,0.00
2019-01-04T15:03:38.500Z,0.00
2019-01-04T15:04:38.497Z,0.00
2019-01-04T15:05:38.434Z,0.00
2019-01-04T15:06:40.520Z,0.00
2019-01-04T15:07:38.367Z,0.00
2019-01-04T15:08:38.429Z,0.00
2019-01-04T15:09:38.312Z,0.00
2019-01-04T15:10:38.360Z,0.00
2019-01-04T15:11:38.233Z,0.00
2019-01-04T15:12:38.281Z,0.00
2019-01-04T15:13:38.188Z,0.00
2019-01-04T15:14:38.249Z,0.00
2019-01-04T15:15:38.127Z,0.00
2019-01-04T15:16:38.183Z,0.00
2019-01-04T15:17:38.085Z,0.00
2019-01-04T15:18:39.133Z,0.00
2019-01-04T15:19:37.999Z,0.00
2019-01-04T15:20:38.012Z,0.00
2019-01-04T15:21:37.916Z,0.00
2019-01-04T15:22:37.886Z,0.00
2019-01-04T15:23:37.919Z,0.00
2019-01-04T15:24:37.825Z,0.00
2019-01-04T15:25:37.866Z,0.00
2019-01-04T15:26:37.756Z,0.00
2019-01-04T15:27:37.743Z,0.00
2019-01-04T15:28:37.691Z,0.00
2019-01-04T15:29:37.747Z,0.00
2019-01-04T15:30:37.634Z,0.00
2019-01-04T15:31:44.358Z,0.00
2019-01-04T15:32:37.581Z,0.00
2019-01-04T15:33:52.365Z,0.00
2019-01-04T15:34:37.526Z,0.00
2019-01-04T15:35:37.502Z,0.00
2019-01-04T15:36:37.432Z,0.00
2019-01-04T15:37:37.424Z,0.00
2019-01-04T15:38:37.391Z,0.00
2019-01-04T15:39:37.347Z,0.00
2019-01-04T15:40:37.335Z,0.00
2019-01-04T15:41:37.279Z,0.00
2019-01-04T15:42:37.246Z,0.00
2019-01-04T15:43:37.262Z,0.00
2019-01-04T15:44:37.193Z,0.00
2019-01-04T15:45:43.866Z,0.00
2019-01-04T15:46:37.102Z,0.00
2019-01-04T15:47:37.106Z,0.00
2019-01-04T15:48:37.043Z,0.00
2019-01-04T15:49:37.028Z,0.00
2019-01-04T15:50:36.973Z,0.00
2019-01-04T15:51:36.966Z,0.00
2019-01-04T15:52:36.895Z,0.00
2019-01-04T15:53:36.897Z,0.00
2019-01-04T15:54:36.845Z,0.00
2019-01-04T15:55:37.853Z,0.00
2019-01-04T15:56:36.786Z,0.00
2019-01-04T15:57:38.784Z,0.00
2019-01-04T15:58:36.720Z,0.00
2019-01-04T15:59:36.681Z,0.00
2019-01-04T16:00:36.787Z,0.00
2019-01-04T16:01:52.375Z,0.00
2019-01-04T16:02:36.607Z,0.00
2019-01-04T16:03:36.577Z,0.00
2019-01-04T16:04:36.509Z,0.00
2019-01-04T16:05:36.485Z,0.00
2019-01-04T16:06:36.464Z,0.00
2019-01-04T16:07:37.441Z,0.00
2019-01-04T16:08:36.390Z,0.00
2019-01-04T16:09:38.366Z,0.00
2019-01-04T16:10:36.323Z,0.00
2019-01-04T16:11:36.309Z,0.00
2019-01-04T16:12:36.255Z,0.00
2019-01-04T16:13:36.245Z,0.00
2019-01-04T16:14:36.203Z,0.00
2019-01-04T16:15:36.183Z,0.00
2019-01-04T16:16:36.127Z,0.00
2019-01-04T16:17:37.109Z,0.00
2019-01-04T16:18:36.078Z,0.00
2019-01-04T16:19:36.055Z,0.00
2019-01-04T16:20:36.033Z,0.00
2019-01-04T16:21:37.994Z,0.00
2019-01-04T16:22:35.950Z,0.00
2019-01-04T16:23:36.914Z,0.00
2019-01-04T16:24:35.862Z,0.00
2019-01-04T16:25:36.864Z,0.00
2019-01-04T16:26:35.795Z,0.00
2019-01-04T16:27:35.801Z,0.00
2019-01-04T16:28:35.866Z,0.00
2019-01-04T16:29:35.966Z,0.00
2019-01-04T16:30:36.940Z,0.00
2019-01-04T16:31:35.645Z,0.00
2019-01-04T16:32:35.684Z,0.00
2019-01-04T16:33:44.437Z,0.00
2019-01-04T16:34:35.574Z,0.00
2019-01-04T16:35:36.629Z,0.00
2019-01-04T16:36:35.510Z,0.00
2019-01-04T16:37:37.583Z,0.00
2019-01-04T16:38:35.440Z,0.00
2019-01-04T16:39:35.406Z,0.00
2019-01-04T16:40:35.412Z,0.00
2019-01-04T16:41:35.487Z,0.00